Saint Thomas, MO

11:50 PM CDT on June 29, 2015 (GMT -0500)
Scrivner Rd | | Change Station
CLOSE
Current Station
Personal Weather Station
Location: Russellville, MO
Elevation: 856 ft
Nearby Weather Stations
Active Advisory: Flood Warning Active Notice: Public Information Statement

Elev 856 ft 38.45 °N, 92.36 °W | Updated 7 seconds ago

Clear
Clear
73.4 °F
Feels Like 73 °F
N
2.2
Wind Variable Wind from West
Gusts 3.8 mph

Today
High -- | Low -- °F
--% Chance of Precip.
Yesterday
High -- | Low -- °F
Precip. -- in
5:48 AM 8:37 PM
Waxing Gibbous, 96% visible
Pressure 29.84 in
Visibility 10.0 miles
Clouds Few 6000 ft
Heat Index 73 °F
Dew Point 68 °F
Humidity 83%
Rainfall 0.00 in
Snow Depth Not available.
UV 0.0 out of 12
Pollen 4.50 out of 12
Air Quality Not available.
Flu Activity Sporadic
METAR KJEF 300353Z AUTO 00000KT 10SM FEW060 23/21 A2988 RMK AO2 SLP105 T02330206 TSNO

More Conditions Fewer Conditions

Pressure 29.84 in
Visibility 10.0 miles
Clouds Few 6000 ft
Heat Index 73 °F
Dew Point 68 °F
Humidity 83%
Rainfall 0.00 in
Snow Depth Not available.
UV 0.0 out of 12
Pollen 4.50 out of 12
Air Quality Not available.
Flu Activity Sporadic
METAR KJEF 300353Z AUTO 00000KT 10SM FEW060 23/21 A2988 RMK AO2 SLP105 T02330206 TSNO

More Conditions Fewer Conditions

10-Day Weather Forecast

×

Almanac

Astronomy

Jun. 29, 2015 Rise Set
Actual Time
Civil Twilight
Nautical Twilight
Astronomical Twilight
Moon
Length of Visible Light
Length of Day
Tomorrow will be .
, % of the Moon is Illuminated

Today's Extremes

State Highs State Lows

Community

WunderPhotos

Upload Photos

1,833,965 photos uploaded!

WunderBlogs® & News

Nearby

Air Quality

  Air Quality AQ Index Pollutant
Not available.

Snow Depth

Station Depth Elevation

Earthquake Activity

City Distance Mag. Time & Date
Minimum magnitude displayed is 2.5.

Coastal Water Temperatures

Place Temperature

Stations

Nearby Weather Stations

Station Location Temp. Windchill Dew Point Humidity Wind Precip. Elev Updated Type
                   
Flood Warning
Statement as of 8:59 PM CDT on June 29, 2015

The Flood Warning continues for
the Missouri River at Jefferson City
* until Tuesday evening.
* At 8:45 PM Monday the stage was 25.4 feet.
* Flood stage is 23.0 feet.
* Moderate flooding is occurring and moderate flooding is forecast.
* Forecast: the river is forecast to fall below flood stage Tuesday
evening.


                   Fld latest 7 a.M. Forecast
location stg obs stg 06/30 07/01 07/02 07/03 07/04

Missouri River
Jefferson City 23.0 25.35 24.4 22.2 20.5 18.8 18.0




Lat... Lon 3899 9255 3890 9260 3853 9222 3855 9192
      3864 9198